createdAt,value
2023-05-21T00:01:28.456Z,11.71
2023-05-21T00:03:54.948Z,11.80
2023-05-21T00:06:21.536Z,11.90
2023-05-21T00:08:47.854Z,11.90
2023-05-21T00:11:14.268Z,11.96
2023-05-21T00:13:40.665Z,12.00
2023-05-21T00:16:07.004Z,11.99
2023-05-21T00:18:33.297Z,12.01
2023-05-21T00:20:59.721Z,11.94
2023-05-21T00:23:26.168Z,11.94
2023-05-21T00:25:52.622Z,11.94
2023-05-21T00:28:19.075Z,11.92
2023-05-21T00:30:45.588Z,11.94
2023-05-21T00:33:11.991Z,11.93
2023-05-21T00:35:38.352Z,11.92
2023-05-21T00:38:04.647Z,11.95
2023-05-21T00:40:30.954Z,11.95
2023-05-21T00:42:57.348Z,11.95
2023-05-21T00:45:23.851Z,11.96
2023-05-21T00:47:50.432Z,11.96
2023-05-21T00:50:16.752Z,11.95
2023-05-21T00:52:43.053Z,11.97
2023-05-21T00:55:09.310Z,11.84
2023-05-21T00:57:35.598Z,11.85
2023-05-21T01:00:01.878Z,11.87
2023-05-21T01:02:28.505Z,11.85
2023-05-21T01:04:54.901Z,11.87
2023-05-21T01:07:21.360Z,11.89
2023-05-21T01:09:47.984Z,11.88
2023-05-21T01:12:14.280Z,11.85
2023-05-21T01:14:40.628Z,11.81
2023-05-21T01:17:07.193Z,11.80
2023-05-21T01:19:33.677Z,11.89
2023-05-21T01:22:00.045Z,11.95
2023-05-21T01:24:26.565Z,11.95
2023-05-21T01:26:55.028Z,11.95
2023-05-21T01:29:21.678Z,11.83
2023-05-21T01:31:48.048Z,11.79
2023-05-21T01:34:14.350Z,11.80
2023-05-21T01:36:41.039Z,11.80
2023-05-21T01:39:08.561Z,11.74
2023-05-21T01:41:35.057Z,11.77
2023-05-21T01:44:01.331Z,11.80
2023-05-21T01:46:27.817Z,11.86
2023-05-21T01:48:54.172Z,11.87
2023-05-21T01:51:20.480Z,11.92
2023-05-21T01:53:46.800Z,11.96
2023-05-21T01:56:13.315Z,11.99
2023-05-21T01:58:39.645Z,12.03
2023-05-21T02:01:05.956Z,12.07
2023-05-21T02:03:32.723Z,12.07
2023-05-21T02:05:59.554Z,12.05
2023-05-21T02:08:25.842Z,12.05
2023-05-21T02:10:52.127Z,12.00
2023-05-21T02:13:18.571Z,11.99
2023-05-21T02:15:44.898Z,12.06
2023-05-21T02:18:11.275Z,12.15
2023-05-21T02:20:37.910Z,12.11
2023-05-21T02:23:04.212Z,12.11
2023-05-21T02:25:30.666Z,12.10
2023-05-21T02:27:57.105Z,12.16
2023-05-21T02:30:24.290Z,12.11
2023-05-21T02:32:50.633Z,12.13
2023-05-21T02:35:17.024Z,12.13
2023-05-21T02:37:43.270Z,12.13
2023-05-21T02:40:09.585Z,12.16
2023-05-21T02:42:35.869Z,12.15
2023-05-21T02:45:02.411Z,12.16
2023-05-21T02:47:28.677Z,12.17
2023-05-21T02:49:55.019Z,12.16
2023-05-21T02:52:21.325Z,12.12
2023-05-21T02:54:47.586Z,12.09
2023-05-21T02:57:15.455Z,12.08
2023-05-21T02:59:41.738Z,12.08
2023-05-21T03:02:08.225Z,12.14
2023-05-21T03:04:34.529Z,12.24
2023-05-21T03:07:01.010Z,12.30
2023-05-21T03:09:27.273Z,12.33
2023-05-21T03:11:53.546Z,12.34
2023-05-21T03:14:20.226Z,12.29
2023-05-21T03:16:46.525Z,12.28
2023-05-21T03:19:12.902Z,12.26
2023-05-21T03:21:39.258Z,12.27
2023-05-21T03:24:05.617Z,12.25
2023-05-21T03:26:31.921Z,12.28
2023-05-21T03:28:58.187Z,12.28
2023-05-21T03:31:24.804Z,12.27
2023-05-21T03:33:51.215Z,12.27
2023-05-21T03:36:17.529Z,12.28
2023-05-21T03:38:43.847Z,12.28
2023-05-21T03:41:10.144Z,12.20
2023-05-21T03:43:36.460Z,12.17
2023-05-21T03:46:02.987Z,12.07
2023-05-21T03:48:29.336Z,12.07
2023-05-21T03:50:56.236Z,12.07
2023-05-21T03:53:22.527Z,12.05
2023-05-21T03:55:49.163Z,12.10
2023-05-21T03:58:15.429Z,12.04
2023-05-21T04:00:41.735Z,11.99
2023-05-21T04:03:08.137Z,12.07
2023-05-21T04:05:34.649Z,12.07
2023-05-21T04:08:01.001Z,12.14
2023-05-21T04:10:27.262Z,12.22
2023-05-21T04:12:53.930Z,12.23
2023-05-21T04:15:20.230Z,12.16
2023-05-21T04:17:46.707Z,12.13
2023-05-21T04:20:13.441Z,12.17
2023-05-21T04:22:39.897Z,12.28
2023-05-21T04:25:06.184Z,12.27
2023-05-21T04:27:32.433Z,12.29
2023-05-21T04:29:58.772Z,12.29
2023-05-21T04:32:25.048Z,12.32
2023-05-21T04:34:51.356Z,12.29
2023-05-21T04:37:17.614Z,12.28
2023-05-21T04:39:44.052Z,12.25
2023-05-21T04:42:10.376Z,12.34
2023-05-21T04:44:36.696Z,12.33
2023-05-21T04:47:03.386Z,12.40
2023-05-21T04:49:29.687Z,12.32
2023-05-21T04:51:55.993Z,12.29
2023-05-21T04:54:22.313Z,12.36
2023-05-21T04:56:48.571Z,12.54
2023-05-21T04:59:14.848Z,12.60
2023-05-21T05:01:41.182Z,12.60
2023-05-21T05:04:07.493Z,12.72
2023-05-21T05:06:33.777Z,12.62
2023-05-21T05:09:00.228Z,12.69
2023-05-21T05:11:26.874Z,12.82
2023-05-21T05:13:53.190Z,12.91
2023-05-21T05:16:19.515Z,13.01
2023-05-21T05:18:46.257Z,13.18
2023-05-21T05:21:12.934Z,13.33
2023-05-21T05:23:39.184Z,13.40
2023-05-21T05:26:05.530Z,13.50
2023-05-21T05:28:31.985Z,13.70
2023-05-21T05:30:58.300Z,13.84
2023-05-21T05:33:25.025Z,13.93
2023-05-21T05:35:51.793Z,14.07
2023-05-21T05:38:18.356Z,14.16
2023-05-21T05:40:44.821Z,14.29
2023-05-21T05:43:11.263Z,14.54
2023-05-21T05:45:38.076Z,14.67
2023-05-21T05:48:04.740Z,14.81
2023-05-21T05:50:31.375Z,15.05
2023-05-21T05:52:57.818Z,15.27
2023-05-21T05:55:24.184Z,15.53
2023-05-21T05:57:50.458Z,15.69
2023-05-21T06:00:16.731Z,15.84
2023-05-21T06:02:43.081Z,16.08
2023-05-21T06:05:09.512Z,16.31
2023-05-21T06:07:36.134Z,16.50
2023-05-21T06:10:02.476Z,16.66
2023-05-21T06:12:28.753Z,16.73
2023-05-21T06:14:55.160Z,16.76
2023-05-21T06:17:21.624Z,16.78
2023-05-21T06:19:47.904Z,16.66
2023-05-21T06:22:14.548Z,16.49
2023-05-21T06:24:41.031Z,16.41
2023-05-21T06:27:07.307Z,16.39
2023-05-21T06:29:33.679Z,16.38
2023-05-21T06:31:59.963Z,16.41
2023-05-21T06:34:26.232Z,16.44
2023-05-21T06:36:52.525Z,16.42
2023-05-21T06:39:18.960Z,16.34
2023-05-21T06:41:45.402Z,16.32
2023-05-21T06:44:11.658Z,16.14
2023-05-21T06:46:37.927Z,16.27
2023-05-21T06:49:04.342Z,16.45
2023-05-21T06:51:30.986Z,16.59
2023-05-21T06:53:57.428Z,16.69
2023-05-21T06:56:23.913Z,16.83
2023-05-21T06:58:50.172Z,16.96
2023-05-21T07:01:16.760Z,17.06
2023-05-21T07:03:43.197Z,17.13
2023-05-21T07:06:09.918Z,17.25
2023-05-21T07:08:36.197Z,17.18
2023-05-21T07:11:02.637Z,17.13
2023-05-21T07:13:29.107Z,17.10
2023-05-21T07:15:55.409Z,17.15
2023-05-21T07:18:22.068Z,17.26
2023-05-21T07:20:48.409Z,17.35
2023-05-21T07:23:14.705Z,17.00
2023-05-21T07:25:41.244Z,17.04
2023-05-21T07:28:07.625Z,16.77
2023-05-21T07:30:34.222Z,16.77
2023-05-21T07:33:00.631Z,16.48
2023-05-21T07:35:27.369Z,16.25
2023-05-21T07:37:53.739Z,16.60
2023-05-21T07:40:20.215Z,16.79
2023-05-21T07:42:46.490Z,16.83
2023-05-21T07:45:12.969Z,17.13
2023-05-21T07:47:39.332Z,17.22
2023-05-21T07:50:05.636Z,17.51
2023-05-21T07:52:32.260Z,17.85
2023-05-21T07:54:59.021Z,18.09
2023-05-21T07:57:25.400Z,18.35
2023-05-21T07:59:51.670Z,18.54
2023-05-21T08:02:17.948Z,18.77
2023-05-21T08:04:44.271Z,18.57
2023-05-21T08:07:10.978Z,18.79
2023-05-21T08:09:37.405Z,18.63
2023-05-21T08:12:03.818Z,18.61
2023-05-21T08:14:30.526Z,18.65
2023-05-21T08:16:56.824Z,18.76
2023-05-21T08:19:23.333Z,18.72
2023-05-21T08:21:52.092Z,18.52
2023-05-21T08:24:19.349Z,18.59
2023-05-21T08:26:45.656Z,18.77
2023-05-21T08:29:12.112Z,18.82
2023-05-21T08:31:38.790Z,18.54
2023-05-21T08:34:05.060Z,18.34
2023-05-21T08:36:31.337Z,18.07
2023-05-21T08:38:59.875Z,17.94
2023-05-21T08:41:26.628Z,18.04
2023-05-21T08:43:54.908Z,18.04
2023-05-21T08:46:21.443Z,17.99
2023-05-21T08:48:47.809Z,18.29
2023-05-21T08:51:14.098Z,18.48
2023-05-21T08:53:40.360Z,18.54
2023-05-21T08:56:06.652Z,18.77
2023-05-21T08:58:35.188Z,19.06
2023-05-21T09:01:01.647Z,19.01
2023-05-21T09:03:28.348Z,19.13
2023-05-21T09:05:54.643Z,19.27
2023-05-21T09:08:21.351Z,19.51
2023-05-21T09:10:47.619Z,19.46
2023-05-21T09:13:13.945Z,19.56
2023-05-21T09:15:40.410Z,19.92
2023-05-21T09:18:06.744Z,20.19
2023-05-21T09:20:33.103Z,19.83
2023-05-21T09:22:59.796Z,19.85
2023-05-21T09:25:26.173Z,19.98
2023-05-21T09:27:52.579Z,20.42
2023-05-21T09:30:19.499Z,20.80
2023-05-21T09:32:47.597Z,21.26
2023-05-21T09:35:13.921Z,21.71
2023-05-21T09:37:40.541Z,21.98
2023-05-21T09:40:06.899Z,22.05
2023-05-21T09:42:33.167Z,22.25
2023-05-21T09:44:59.480Z,22.46
2023-05-21T09:47:25.808Z,22.50
2023-05-21T09:49:52.449Z,22.77
2023-05-21T09:52:18.802Z,22.90
2023-05-21T09:54:45.156Z,23.02
2023-05-21T09:57:11.413Z,22.32
2023-05-21T09:59:37.768Z,22.43
2023-05-21T10:02:04.081Z,22.67
2023-05-21T10:04:30.620Z,22.66
2023-05-21T10:06:56.963Z,22.43
2023-05-21T10:09:23.227Z,21.55
2023-05-21T10:11:49.527Z,21.77
2023-05-21T10:14:15.971Z,21.75
2023-05-21T10:16:42.337Z,21.51
2023-05-21T10:19:08.852Z,21.70
2023-05-21T10:21:35.232Z,21.75
2023-05-21T10:24:01.804Z,21.53
2023-05-21T10:26:28.101Z,21.63
2023-05-21T10:28:55.120Z,21.78
2023-05-21T10:31:21.851Z,21.56
2023-05-21T10:33:48.293Z,21.68
2023-05-21T10:36:14.782Z,21.65
2023-05-21T10:38:41.217Z,21.62
2023-05-21T10:41:07.487Z,21.28
2023-05-21T10:43:33.752Z,21.70
2023-05-21T10:46:00.211Z,22.24
2023-05-21T10:48:26.549Z,22.40
2023-05-21T10:50:52.975Z,22.50
2023-05-21T10:53:19.240Z,22.26
2023-05-21T10:55:45.496Z,22.30
2023-05-21T10:58:11.787Z,22.56
2023-05-21T11:00:38.358Z,22.43
2023-05-21T11:03:04.994Z,22.72
2023-05-21T11:05:31.423Z,22.60
2023-05-21T11:07:57.824Z,22.77
2023-05-21T11:10:24.140Z,23.13
2023-05-21T11:12:50.402Z,23.50
2023-05-21T11:15:16.874Z,23.72
2023-05-21T11:17:44.460Z,24.10
2023-05-21T11:20:10.945Z,23.51
2023-05-21T11:22:37.231Z,23.29
2023-05-21T11:25:03.884Z,23.74
2023-05-21T11:27:30.606Z,23.49
2023-05-21T11:29:56.909Z,23.96
2023-05-21T11:32:23.227Z,23.81
2023-05-21T11:34:49.540Z,23.37
2023-05-21T11:37:16.004Z,23.18
2023-05-21T11:39:42.514Z,23.34
2023-05-21T11:42:08.772Z,23.25
2023-05-21T11:44:35.418Z,23.50
2023-05-21T11:47:01.757Z,23.59
2023-05-21T11:49:28.131Z,23.31
2023-05-21T11:51:55.046Z,23.40
2023-05-21T11:54:21.321Z,23.67
2023-05-21T11:56:47.992Z,23.85
2023-05-21T11:59:16.011Z,23.94
2023-05-21T12:01:43.480Z,23.38
2023-05-21T12:04:09.768Z,23.22
2023-05-21T12:06:36.046Z,23.56
2023-05-21T12:09:02.319Z,23.59
2023-05-21T12:11:28.676Z,23.98
2023-05-21T12:13:55.144Z,23.43
2023-05-21T12:16:23.144Z,23.20
2023-05-21T12:18:49.676Z,23.08
2023-05-21T12:21:15.963Z,22.97
2023-05-21T12:23:42.246Z,23.13
2023-05-21T12:26:08.548Z,23.21
2023-05-21T12:28:34.981Z,23.28
2023-05-21T12:31:01.615Z,23.65
2023-05-21T12:33:27.968Z,23.90
2023-05-21T12:35:54.444Z,23.37
2023-05-21T12:38:20.783Z,23.79
2023-05-21T12:40:47.499Z,24.00
2023-05-21T12:43:13.756Z,23.69
2023-05-21T12:45:40.071Z,23.48
2023-05-21T12:48:06.388Z,23.36
2023-05-21T12:50:32.759Z,23.45
2023-05-21T12:52:59.192Z,23.54
2023-05-21T12:55:25.862Z,23.90
2023-05-21T12:57:52.127Z,24.04
2023-05-21T13:00:18.538Z,24.21
2023-05-21T13:02:45.079Z,23.83
2023-05-21T13:05:11.527Z,23.55
2023-05-21T13:07:37.811Z,23.62
2023-05-21T13:10:04.223Z,23.83
2023-05-21T13:12:30.485Z,24.12
2023-05-21T13:14:56.796Z,23.44
2023-05-21T13:17:23.220Z,24.00
2023-05-21T13:19:49.749Z,24.25
2023-05-21T13:22:16.196Z,24.64
2023-05-21T13:24:42.724Z,24.51
2023-05-21T13:27:09.082Z,24.35
2023-05-21T13:29:35.340Z,23.73
2023-05-21T13:32:01.646Z,23.54
2023-05-21T13:34:27.902Z,23.48
2023-05-21T13:36:54.160Z,23.98
2023-05-21T13:39:20.469Z,24.31
2023-05-21T13:41:46.807Z,24.39
2023-05-21T13:44:13.076Z,24.58
2023-05-21T13:46:39.600Z,24.35
2023-05-21T13:49:05.941Z,24.90
2023-05-21T13:51:39.121Z,25.37
2023-05-21T13:54:05.706Z,25.35
2023-05-21T13:56:32.106Z,25.70
2023-05-21T13:58:58.361Z,25.11
2023-05-21T14:01:24.797Z,24.79
2023-05-21T14:03:51.091Z,24.88
2023-05-21T14:06:17.654Z,25.15
2023-05-21T14:08:43.923Z,24.75
2023-05-21T14:11:10.370Z,24.53
2023-05-21T14:13:36.643Z,24.45
2023-05-21T14:16:02.927Z,24.36
2023-05-21T14:18:29.597Z,24.12
2023-05-21T14:20:56.041Z,23.48
2023-05-21T14:23:22.392Z,23.31
2023-05-21T14:25:48.898Z,23.73
2023-05-21T14:28:15.170Z,23.94
2023-05-21T14:30:41.460Z,23.54
2023-05-21T14:33:07.870Z,23.08
2023-05-21T14:35:34.246Z,23.21
2023-05-21T14:38:01.031Z,23.42
2023-05-21T14:40:27.356Z,23.65
2023-05-21T14:42:53.683Z,23.24
2023-05-21T14:45:20.202Z,22.82
2023-05-21T14:47:46.551Z,23.09
2023-05-21T14:50:12.878Z,22.74
2023-05-21T14:52:39.525Z,23.32
2023-05-21T14:55:05.961Z,22.84
2023-05-21T14:57:32.261Z,22.84
2023-05-21T14:59:58.919Z,23.04
2023-05-21T15:02:25.589Z,22.70
2023-05-21T15:04:52.301Z,22.94
2023-05-21T15:07:18.710Z,23.10
2023-05-21T15:09:45.144Z,23.64
2023-05-21T15:12:11.528Z,23.76
2023-05-21T15:14:37.778Z,24.09
2023-05-21T15:17:04.050Z,24.46
2023-05-21T15:19:30.601Z,24.38
2023-05-21T15:21:56.932Z,24.41
2023-05-21T15:24:23.506Z,24.23
2023-05-21T15:26:49.776Z,24.03
2023-05-21T15:29:16.029Z,23.73
2023-05-21T15:31:42.461Z,23.96
2023-05-21T15:34:08.787Z,23.49
2023-05-21T15:36:35.103Z,23.71
2023-05-21T15:39:01.362Z,23.33
2023-05-21T15:41:27.888Z,22.48
2023-05-21T15:43:54.157Z,22.46
2023-05-21T15:46:20.852Z,22.24
2023-05-21T15:48:47.492Z,22.08
2023-05-21T15:51:14.007Z,21.92
2023-05-21T15:53:40.366Z,22.06
2023-05-21T15:56:06.663Z,22.13
2023-05-21T15:58:33.136Z,22.38
2023-05-21T16:00:59.487Z,22.77
2023-05-21T16:03:26.018Z,22.84
2023-05-21T16:05:52.803Z,23.09
2023-05-21T16:08:19.221Z,22.93
2023-05-21T16:10:45.669Z,23.29
2023-05-21T16:13:12.148Z,22.95
2023-05-21T16:15:38.541Z,22.95
2023-05-21T16:18:05.040Z,22.70
2023-05-21T16:20:31.549Z,22.74
2023-05-21T16:22:57.841Z,22.12
2023-05-21T16:25:24.141Z,22.45
2023-05-21T16:27:50.406Z,22.24
2023-05-21T16:30:16.682Z,22.48
2023-05-21T16:32:43.404Z,22.24
2023-05-21T16:35:09.712Z,22.31
2023-05-21T16:37:36.216Z,22.05
2023-05-21T16:40:02.569Z,22.18
2023-05-21T16:42:28.848Z,21.74
2023-05-21T16:44:55.231Z,21.99
2023-05-21T16:47:21.572Z,22.08
2023-05-21T16:49:47.991Z,21.84
2023-05-21T16:52:14.687Z,21.77
2023-05-21T16:54:41.167Z,21.68
2023-05-21T16:57:07.434Z,21.61
2023-05-21T16:59:33.732Z,21.54
2023-05-21T17:02:00.137Z,21.75
2023-05-21T17:04:26.892Z,21.94
2023-05-21T17:06:53.545Z,22.18
2023-05-21T17:09:19.805Z,21.99
2023-05-21T17:11:46.085Z,22.05
2023-05-21T17:14:17.494Z,22.07
2023-05-21T17:16:49.874Z,21.84
2023-05-21T17:19:16.217Z,21.47
2023-05-21T17:21:42.733Z,21.57
2023-05-21T17:24:09.026Z,21.57
2023-05-21T17:26:35.682Z,21.07
2023-05-21T17:29:02.866Z,21.14
2023-05-21T17:31:29.281Z,21.14
2023-05-21T17:33:55.640Z,21.01
2023-05-21T17:36:22.077Z,20.98
2023-05-21T17:38:48.428Z,20.95
2023-05-21T17:41:14.688Z,20.97
2023-05-21T17:43:40.990Z,20.78
2023-05-21T17:46:07.288Z,20.85
2023-05-21T17:48:33.692Z,20.39
2023-05-21T17:51:00.013Z,20.11
2023-05-21T17:53:26.292Z,20.03
2023-05-21T17:55:52.545Z,20.13
2023-05-21T17:58:18.814Z,19.92
2023-05-21T18:00:45.281Z,20.06
2023-05-21T18:03:11.862Z,20.15
2023-05-21T18:05:38.399Z,20.15
2023-05-21T18:08:05.074Z,20.14
2023-05-21T18:10:31.358Z,20.07
2023-05-21T18:12:58.825Z,20.00
2023-05-21T18:15:25.111Z,19.94
2023-05-21T18:17:52.221Z,19.83
2023-05-21T18:20:18.883Z,19.75
2023-05-21T18:22:45.586Z,19.66
2023-05-21T18:25:11.930Z,19.57
2023-05-21T18:27:38.309Z,19.45
2023-05-21T18:30:04.821Z,19.30
2023-05-21T18:32:31.144Z,19.22
2023-05-21T18:34:57.468Z,19.14
2023-05-21T18:37:23.748Z,19.08
2023-05-21T18:39:50.125Z,19.05
2023-05-21T18:42:16.478Z,18.99
2023-05-21T18:44:42.890Z,18.82
2023-05-21T18:47:09.182Z,18.73
2023-05-21T18:49:35.455Z,18.59
2023-05-21T18:52:01.900Z,18.32
2023-05-21T18:54:28.156Z,18.32
2023-05-21T18:56:54.788Z,18.27
2023-05-21T18:59:21.050Z,18.19
2023-05-21T19:01:47.451Z,18.20
2023-05-21T19:04:13.856Z,18.15
2023-05-21T19:06:40.487Z,18.08
2023-05-21T19:09:06.766Z,18.07
2023-05-21T19:11:33.267Z,18.04
2023-05-21T19:13:59.676Z,18.02
2023-05-21T19:16:26.043Z,17.97
2023-05-21T19:18:52.595Z,17.87
2023-05-21T19:21:19.260Z,17.79
2023-05-21T19:23:53.046Z,17.71
2023-05-21T19:26:20.181Z,17.61
2023-05-21T19:28:47.996Z,17.68
2023-05-21T19:31:14.287Z,17.59
2023-05-21T19:33:40.820Z,17.48
2023-05-21T19:36:07.209Z,17.38
2023-05-21T19:38:33.472Z,17.45
2023-05-21T19:40:59.753Z,17.39
2023-05-21T19:43:26.053Z,17.33
2023-05-21T19:45:52.587Z,17.30
2023-05-21T19:48:18.948Z,17.22
2023-05-21T19:50:45.255Z,17.22
2023-05-21T19:53:11.522Z,17.35
2023-05-21T19:55:37.818Z,17.31
2023-05-21T19:58:04.089Z,17.27
2023-05-21T20:00:30.354Z,17.25
2023-05-21T20:02:56.964Z,17.20
2023-05-21T20:05:23.449Z,17.21
2023-05-21T20:07:50.069Z,17.18
2023-05-21T20:10:16.788Z,17.25
2023-05-21T20:12:43.041Z,17.22
2023-05-21T20:15:09.306Z,17.16
2023-05-21T20:17:36.161Z,17.09
2023-05-21T20:20:02.926Z,17.05
2023-05-21T20:22:29.186Z,17.06
2023-05-21T20:24:55.710Z,17.06
2023-05-21T20:27:22.087Z,17.04
2023-05-21T20:29:48.740Z,16.91
2023-05-21T20:32:15.214Z,16.85
2023-05-21T20:34:50.714Z,16.80
2023-05-21T20:37:28.383Z,16.76
2023-05-21T20:39:55.039Z,16.65
2023-05-21T20:42:21.323Z,16.54
2023-05-21T20:44:47.612Z,16.47
2023-05-21T20:47:13.877Z,16.33
2023-05-21T20:49:40.574Z,16.34
2023-05-21T20:52:06.930Z,16.30
2023-05-21T20:54:33.200Z,16.29
2023-05-21T20:56:59.802Z,16.19
2023-05-21T20:59:26.310Z,16.14
2023-05-21T21:01:52.809Z,16.12
2023-05-21T21:04:19.120Z,16.01
2023-05-21T21:06:45.751Z,15.99
2023-05-21T21:09:12.028Z,15.83
2023-05-21T21:11:38.318Z,15.74
2023-05-21T21:14:04.721Z,15.70
2023-05-21T21:16:31.350Z,15.74
2023-05-21T21:18:57.725Z,15.68
2023-05-21T21:21:24.064Z,15.57
2023-05-21T21:23:50.499Z,15.48
2023-05-21T21:26:16.776Z,15.41
2023-05-21T21:28:44.903Z,15.35
2023-05-21T21:31:12.331Z,15.34
2023-05-21T21:33:38.891Z,15.37
2023-05-21T21:36:06.180Z,15.39
2023-05-21T21:38:32.480Z,15.38
2023-05-21T21:40:59.170Z,15.45
2023-05-21T21:43:25.557Z,15.40
2023-05-21T21:45:51.888Z,15.43
2023-05-21T21:48:18.195Z,15.35
2023-05-21T21:50:44.498Z,15.33
2023-05-21T21:53:10.860Z,15.22
2023-05-21T21:55:37.134Z,15.21
2023-05-21T21:58:03.435Z,15.02
2023-05-21T22:00:29.990Z,14.96
2023-05-21T22:02:56.292Z,14.90
2023-05-21T22:05:22.583Z,14.86
2023-05-21T22:07:48.908Z,14.84
2023-05-21T22:10:15.284Z,14.82
2023-05-21T22:12:41.611Z,14.89
2023-05-21T22:15:08.002Z,14.91
2023-05-21T22:17:34.409Z,14.74
2023-05-21T22:20:00.952Z,14.58
2023-05-21T22:22:27.567Z,14.52
2023-05-21T22:24:53.875Z,14.48
2023-05-21T22:27:20.175Z,14.41
2023-05-21T22:29:46.500Z,14.37
2023-05-21T22:32:12.779Z,14.35
2023-05-21T22:34:39.048Z,14.23
2023-05-21T22:37:05.295Z,14.26
2023-05-21T22:39:31.905Z,14.29
2023-05-21T22:41:58.305Z,14.23
2023-05-21T22:44:24.722Z,14.24
2023-05-21T22:46:51.252Z,14.24
2023-05-21T22:49:17.610Z,14.09
2023-05-21T22:51:43.892Z,14.08
2023-05-21T22:54:10.270Z,14.06
2023-05-21T22:56:36.661Z,13.93
2023-05-21T22:59:03.154Z,13.92
2023-05-21T23:01:29.493Z,13.84
2023-05-21T23:03:55.790Z,13.75
2023-05-21T23:06:22.229Z,13.76
2023-05-21T23:08:48.515Z,13.81
2023-05-21T23:11:14.981Z,13.87
2023-05-21T23:13:41.290Z,13.84
2023-05-21T23:16:07.715Z,13.87
2023-05-21T23:18:34.197Z,13.80
2023-05-21T23:21:00.617Z,13.75
2023-05-21T23:23:26.910Z,13.66
2023-05-21T23:25:53.211Z,13.62
2023-05-21T23:28:19.501Z,13.52
2023-05-21T23:30:46.021Z,13.54
2023-05-21T23:33:12.344Z,13.61
2023-05-21T23:35:38.629Z,13.58
2023-05-21T23:38:04.925Z,13.62
2023-05-21T23:40:31.203Z,13.62
2023-05-21T23:42:57.711Z,13.64
2023-05-21T23:45:24.028Z,13.62
2023-05-21T23:47:50.392Z,13.43
2023-05-21T23:50:16.781Z,13.35
2023-05-21T23:52:43.080Z,13.31
2023-05-21T23:55:09.533Z,13.37
2023-05-21T23:57:35.824Z,13.31
